Aérodrome :
LOGIN :

S'inscrire | Disclaimer

   EN    FR    IT 

 










Légende :    VFR   VFR Marginal   IFR   IFR Intensif   IFR Très Intensif
Visi : 
Plafond : 
>= 8 km
>= 3000ft
5 à 8 km
1000 à 3000 ft
1500m à 5 km
500 à 1000 ft
800 à 1500m
200 à 500 ft
< 800m
< 200 ft
Symboles :   Orages  Brouillard  Fortes neiges  Fortes précipitations  Vent > 20 kt
SIGMETs :   Divers  Orages  Givrage  Turbulence  Onde Orograph.  Cendres Volcan.






- Altitude de l'aérodrome : 1302 ft
- Code IATA : GNB


LFLS - Grenoble / St. Geoirs

DERNIER METAR :
  • 230500Z AUTO VRB02KT 9999 OVC046 13/12 Q1015 TEMPO 4000 RA

METARs EXPIRÉS :
  • 230430Z AUTO 13003KT 9999 OVC048 13/12 Q1015 TEMPO 4000 RA
  • 230400Z AUTO 11003KT 9999 OVC054 12/12 Q1015 TEMPO 4000 RA
  • 230330Z AUTO VRB02KT 9999 BKN060/// OVC084/// ///TCU 12/12 Q1015 TEMPO 4000 RA BECMG FEW060 BKN080
  • 230300Z AUTO 10003KT 7000 BKN060 BKN070 OVC096 12/12 Q1015 TEMPO 4000 RA
  • 230230Z AUTO 11004KT 5000 -RA BR BKN066 BKN086 OVC100 12/12 Q1016 TEMPO RA

TAF TAF LFLS
Valide du 23 à 03h jusqu'au 24 à 03h UTC


230200Z 2303/2403 31005KT 9999 -RA FEW060 BKN080
PROB40
TEMPO 2303/2309 4000 RA
TEMPO 2309/2318 3000 RA BKN020 BKN050TCU
PROB30
TEMPO 2309/2318 VRB10KT 1200 +TSRA BKN010 SCT050CB
BECMG 2314/2316 08006KT
FM231800 08006KT 9999 BKN050
PROB30
TEMPO 2318/2324 -SHRA BKN035 SCT040TCU
ATIS : +33 4 76 65 55 89



MET'MAP, la Météo Aéronautique d'un coup d'oeil ! - Copyright ORBIFLY Décembre 2007 - Disclaimer

ORBIFLY MET'MAP TEAM :

Programmation & Développement : Alexandra Zaïnal
Sur une idée originale de : Baudouin d'Aumeries
Assistance à la programmation : Marc-Olivier Méhu
Soutien technique & logistique : Manuel Goepfert

Contact : metmap@orbifly.com




SOURCES & CREDITS :

   NOAA